Bf Esperanza — V2BR8 — position and weather

sailwx.info

Track history (hours):
 
Tides and Currents Weather Stations Pressure Air Temp Water Temp Dewpoint Dewpoint Depression Visibility Wind Speed Wind Dir Waves Ship Positions

Bf Esperanza

Last reported at 2015-Feb-28 15:32 UTC. Time now 2015-Feb-28 16:01 UTC.
Position N 38°19' E 000°03'.

Length 135 m; draft 8.1 m.

Type: Cargo ship. MMSI: 304907000.

Date/timePositionNaut miles runAvg speedWind from/ knotsBaromVisibWave heightAir tempDewpointWater temp
2015-Feb-28 15:32N 38°19' E 000°03'1212.5
2015-Feb-28 14:33N 38°29' E 000°12'10912.1
2015-Feb-28 05:33N 40°14' E 000°53'1414.0
2015-Feb-28 04:33N 40°23' E 001°06'1414.0
2015-Feb-28 03:33N 40°33' E 001°20'1414.1
2015-Feb-28 02:33N 40°42' E 001°34'2914.1
2015-Feb-28 00:31N 41°01' E 002°03'2914.0
2015-Feb-27 22:28N 41°19' E 002°32'1814.5
2015-Feb-27 21:13N 41°30' E 002°52'1114.6
2015-Feb-27 20:28N 41°36' E 003°03'1814.8
2015-Feb-27 19:16N 41°49' E 003°20'1114.5
2015-Feb-27 18:33N 41°58' E 003°26'1817.0
2015-Feb-27 17:29N 42°16' E 003°26'1616.4
2015-Feb-27 16:30N 42°33' E 003°26'1616.0
2015-Feb-27 15:32N 42°48' E 003°26'1612.6
2015-Feb-27 14:15N 43°03' E 003°35'1014.5
2015-Feb-27 13:33N 43°04' E 003°49'1714.3
2015-Feb-27 12:23N 43°06' E 004°12'1415.4
2015-Feb-27 11:28N 43°07' E 004°31'1314.4
2015-Feb-27 10:33N 43°09' E 004°49'1515.1
2015-Feb-27 09:33N 43°11' E 005°09'1212.3
2015-Feb-27 08:33N 43°21' E 005°20'0 0.1
2015-Feb-27 06:31N 43°21' E 005°20'0 0.0
2015-Feb-27 05:27N 43°21' E 005°20'0 0.0
2015-Feb-27 04:21N 43°21' E 005°20'0 0.0
2015-Feb-27 03:33N 43°21' E 005°20'0 0.0
2015-Feb-27 02:17N 43°21' E 005°20'0 0.0
2015-Feb-27 01:23N 43°21' E 005°20'0 0.0
2015-Feb-27 00:22N 43°21' E 005°20'0 0.0
2015-Feb-26 23:16N 43°21' E 005°20'0 0.0
2015-Feb-26 21:33N 43°21' E 005°20'0 0.0
2015-Feb-26 20:11N 43°21' E 005°20'0 0.0
2015-Feb-26 19:17N 43°21' E 005°20'0 0.0
2015-Feb-26 18:14N 43°21' E 005°20'0 0.0
2015-Feb-26 17:13N 43°21' E 005°20'0 0.0
2015-Feb-26 14:33N 43°21' E 005°20'3 2.6
2015-Feb-26 13:32N 43°20' E 005°17'1110.7
2015-Feb-26 12:33N 43°12' E 005°08'1413.1
2015-Feb-26 11:28N 43°09' E 004°48'2312.1
2015-Feb-26 09:34N 43°06' E 004°17'1512.8
2015-Feb-26 08:25N 43°04' E 003°57'1312.7
2015-Feb-26 07:24N 43°03' E 003°40'1211.5
2015-Feb-26 06:21N 42°56' E 003°26'8712.1
2015-Feb-25 23:12N 41°34' E 002°50'1214.2
2015-Feb-25 22:23N 41°28' E 002°37'1214.2
2015-Feb-25 21:33N 41°22' E 002°23'10 9.1
2015-Feb-25 20:30N 41°20' E 002°10'1 0.8
2015-Feb-25 19:21N 41°21' E 002°10'0 0.0
2015-Feb-25 15:23N 41°21' E 002°10'0 0.0
2015-Feb-25 14:19N 41°21' E 002°10'0 0.0
2015-Feb-25 12:06N 41°21' E 002°10'0 0.0
2015-Feb-25 11:30N 41°21' E 002°10'0 0.0
2015-Feb-25 10:29N 41°21' E 002°10'0 0.0
2015-Feb-25 07:17N 41°21' E 002°10'2 3.1
2015-Feb-25 06:31N 41°19' E 002°11'0 0.1
2015-Feb-25 05:25N 41°19' E 002°12'0 0.0
2015-Feb-25 02:23N 41°19' E 002°12'3 0.3
2015-Feb-24 17:33N 41°16' E 002°11'1514.9
2015-Feb-24 16:33N 41°05' E 001°58'1514.4
2015-Feb-24 15:33N 40°54' E 001°46'1514.8
2015-Feb-24 14:33N 40°43' E 001°33'1414.1
2015-Feb-24 13:33N 40°33' E 001°20'1413.8
2015-Feb-24 12:33N 40°24' E 001°06'1414.3
2015-Feb-24 11:33N 40°14' E 000°52'  
Track history (hours):
 
Tides and Currents Weather Stations Pressure Air Temp Water Temp Dewpoint Dewpoint Depression Visibility Wind Speed Wind Dir Waves Ship Positions

Bf Esperanza

Last reported at 2015-Feb-28 15:32 UTC. Time now 2015-Feb-28 16:01 UTC.
Position N 38°19' E 000°03'.

Length 135 m; draft 8.1 m.

Type: Cargo ship. MMSI: 304907000.

Date/timePositionNaut miles runAvg speedWind from/ knotsBaromVisibWave heightAir tempDewpointWater temp
2015-Feb-28 15:32N 38°19' E 000°03'1212.5
2015-Feb-28 14:33N 38°29' E 000°12'10912.1
2015-Feb-28 05:33N 40°14' E 000°53'1414.0
2015-Feb-28 04:33N 40°23' E 001°06'1414.0
2015-Feb-28 03:33N 40°33' E 001°20'1414.1
2015-Feb-28 02:33N 40°42' E 001°34'2914.1
2015-Feb-28 00:31N 41°01' E 002°03'2914.0
2015-Feb-27 22:28N 41°19' E 002°32'1814.5
2015-Feb-27 21:13N 41°30' E 002°52'1114.6
2015-Feb-27 20:28N 41°36' E 003°03'1814.8
2015-Feb-27 19:16N 41°49' E 003°20'1114.5
2015-Feb-27 18:33N 41°58' E 003°26'1817.0
2015-Feb-27 17:29N 42°16' E 003°26'1616.4
2015-Feb-27 16:30N 42°33' E 003°26'1616.0
2015-Feb-27 15:32N 42°48' E 003°26'1612.6
2015-Feb-27 14:15N 43°03' E 003°35'1014.5
2015-Feb-27 13:33N 43°04' E 003°49'1714.3
2015-Feb-27 12:23N 43°06' E 004°12'1415.4
2015-Feb-27 11:28N 43°07' E 004°31'1314.4
2015-Feb-27 10:33N 43°09' E 004°49'1515.1
2015-Feb-27 09:33N 43°11' E 005°09'1212.3
2015-Feb-27 08:33N 43°21' E 005°20'0 0.1
2015-Feb-27 06:31N 43°21' E 005°20'0 0.0
2015-Feb-27 05:27N 43°21' E 005°20'0 0.0
2015-Feb-27 04:21N 43°21' E 005°20'0 0.0
2015-Feb-27 03:33N 43°21' E 005°20'0 0.0
2015-Feb-27 02:17N 43°21' E 005°20'0 0.0
2015-Feb-27 01:23N 43°21' E 005°20'0 0.0
2015-Feb-27 00:22N 43°21' E 005°20'0 0.0
2015-Feb-26 23:16N 43°21' E 005°20'0 0.0
2015-Feb-26 21:33N 43°21' E 005°20'0 0.0
2015-Feb-26 20:11N 43°21' E 005°20'0 0.0
2015-Feb-26 19:17N 43°21' E 005°20'0 0.0
2015-Feb-26 18:14N 43°21' E 005°20'0 0.0
2015-Feb-26 17:13N 43°21' E 005°20'0 0.0
2015-Feb-26 14:33N 43°21' E 005°20'3 2.6
2015-Feb-26 13:32N 43°20' E 005°17'1110.7
2015-Feb-26 12:33N 43°12' E 005°08'1413.1
2015-Feb-26 11:28N 43°09' E 004°48'2312.1
2015-Feb-26 09:34N 43°06' E 004°17'1512.8
2015-Feb-26 08:25N 43°04' E 003°57'1312.7
2015-Feb-26 07:24N 43°03' E 003°40'1211.5
2015-Feb-26 06:21N 42°56' E 003°26'8712.1
2015-Feb-25 23:12N 41°34' E 002°50'1214.2
2015-Feb-25 22:23N 41°28' E 002°37'1214.2
2015-Feb-25 21:33N 41°22' E 002°23'10 9.1
2015-Feb-25 20:30N 41°20' E 002°10'1 0.8
2015-Feb-25 19:21N 41°21' E 002°10'0 0.0
2015-Feb-25 15:23N 41°21' E 002°10'0 0.0
2015-Feb-25 14:19N 41°21' E 002°10'0 0.0
2015-Feb-25 12:06N 41°21' E 002°10'0 0.0
2015-Feb-25 11:30N 41°21' E 002°10'0 0.0
2015-Feb-25 10:29N 41°21' E 002°10'0 0.0
2015-Feb-25 07:17N 41°21' E 002°10'2 3.1
2015-Feb-25 06:31N 41°19' E 002°11'0 0.1
2015-Feb-25 05:25N 41°19' E 002°12'0 0.0
2015-Feb-25 02:23N 41°19' E 002°12'3 0.3
2015-Feb-24 17:33N 41°16' E 002°11'1514.9
2015-Feb-24 16:33N 41°05' E 001°58'1514.4
2015-Feb-24 15:33N 40°54' E 001°46'1514.8
2015-Feb-24 14:33N 40°43' E 001°33'1414.1
2015-Feb-24 13:33N 40°33' E 001°20'1413.8
2015-Feb-24 12:33N 40°24' E 001°06'1414.3
2015-Feb-24 11:33N 40°14' E 000°52'  

Dump ship's entire track history